Somerset, Texas
Current Conditions -  °F | °C
As of 1:58 AM on Tuesday 27 Jan 2015 (Local Time) from KSKF Reporting Station
Clear Clear  
Wind Chill:   Ceiling: Unl
Heat Index:   Visibility: 10mi
Dew Point:   Wind: 3mph
Humidity: 78%   Direction: 300°WNW
Pressure: 30.17"   Gusts: NA
Location:  29.23°N, 98.66°W
Report Text: KSKF 270758Z AUTO 30003KT 10SM CLR 06/03 A3017 RMK AO2 SLP215 T00630028 $
Loading
Personal Weather Stations






























Interactive Weather Map New forecast layout! Learn more

10-Day Weather Forecast

Advertisements
Track Severe Weather on mobile